createdAt,value
2018-02-21T00:00:31.667Z,2.9
2018-02-21T00:03:01.921Z,2.94
2018-02-21T00:04:16.235Z,2.93
2018-02-21T00:05:30.723Z,2.91
2018-02-21T00:06:44.752Z,2.9
2018-02-21T00:07:59.240Z,2.87
2018-02-21T00:09:13.456Z,2.82
2018-02-21T00:10:28.217Z,2.79
2018-02-21T00:11:42.484Z,2.79
2018-02-21T00:12:56.727Z,2.79
2018-02-21T00:14:11.183Z,2.79
2018-02-21T00:15:25.921Z,2.83
2018-02-21T00:16:40.229Z,2.84
2018-02-21T00:17:54.922Z,2.84
2018-02-21T00:19:08.692Z,2.83
2018-02-21T00:20:22.744Z,2.79
2018-02-21T00:21:36.740Z,2.74
2018-02-21T00:22:51.563Z,2.7
2018-02-21T00:24:05.784Z,2.69
2018-02-21T00:25:20.019Z,2.69
2018-02-21T00:26:33.548Z,2.68
2018-02-21T00:27:48.016Z,2.7
2018-02-21T00:29:02.580Z,2.68
2018-02-21T00:30:16.914Z,2.64
2018-02-21T00:31:30.905Z,2.61
2018-02-21T00:32:59.536Z,2.63
2018-02-21T00:34:14.915Z,2.67
2018-02-21T00:35:28.907Z,2.66
2018-02-21T00:36:43.392Z,2.7
2018-02-21T00:37:57.411Z,2.72
2018-02-21T00:39:12.272Z,2.75
2018-02-21T00:40:26.493Z,2.79
2018-02-21T00:41:41.203Z,2.8
2018-02-21T00:42:55.688Z,2.79
2018-02-21T00:44:10.424Z,2.78
2018-02-21T00:45:24.686Z,2.78
2018-02-21T00:46:38.932Z,2.75
2018-02-21T00:47:53.465Z,2.76
2018-02-21T00:49:07.469Z,2.8
2018-02-21T00:50:21.437Z,2.8
2018-02-21T00:51:35.638Z,2.83
2018-02-21T00:52:49.369Z,2.84
2018-02-21T00:54:03.888Z,2.83
2018-02-21T00:55:17.888Z,2.83
2018-02-21T00:56:31.858Z,2.81
2018-02-21T00:57:46.321Z,2.84
2018-02-21T00:59:00.777Z,2.82
2018-02-21T01:00:29.994Z,2.8
2018-02-21T01:01:44.492Z,2.79
2018-02-21T01:02:59.210Z,2.8
2018-02-21T01:04:13.683Z,2.79
2018-02-21T01:05:27.950Z,2.78
2018-02-21T01:06:42.289Z,2.78
2018-02-21T01:07:56.730Z,2.78
2018-02-21T01:09:10.483Z,2.76
2018-02-21T01:10:24.696Z,2.72
2018-02-21T01:11:38.969Z,2.73
2018-02-21T01:12:53.408Z,2.75
2018-02-21T01:14:07.627Z,2.77
2018-02-21T01:15:21.608Z,2.76
2018-02-21T01:16:35.596Z,2.74
2018-02-21T01:17:49.865Z,2.75
2018-02-21T01:19:03.835Z,2.76
2018-02-21T01:20:18.076Z,2.76
2018-02-21T01:21:32.072Z,2.77
2018-02-21T01:22:46.034Z,2.79
2018-02-21T01:24:00.346Z,2.78
2018-02-21T01:25:14.832Z,2.78
2018-02-21T01:26:29.560Z,2.77
2018-02-21T01:27:43.322Z,2.77
2018-02-21T01:28:57.557Z,2.8
2018-02-21T01:30:11.817Z,2.83
2018-02-21T01:31:25.845Z,2.91
2018-02-21T01:32:40.343Z,2.96
2018-02-21T01:33:54.097Z,3.01
2018-02-21T01:35:07.866Z,3.03
2018-02-21T01:36:22.155Z,3.07
2018-02-21T01:37:35.923Z,3.09
2018-02-21T01:38:50.164Z,3.09
2018-02-21T01:40:04.982Z,3.1
2018-02-21T01:41:18.947Z,3.12
2018-02-21T01:42:33.466Z,3.13
2018-02-21T01:44:02.116Z,3.11
2018-02-21T01:45:16.583Z,3.12
2018-02-21T01:46:30.584Z,3.09
2018-02-21T01:47:45.377Z,3.1
2018-02-21T01:48:59.662Z,3.11
2018-02-21T01:50:14.123Z,3.12
2018-02-21T01:51:28.132Z,3.04
2018-02-21T01:52:42.110Z,3
2018-02-21T01:53:56.159Z,2.98
2018-02-21T01:55:09.927Z,2.96
2018-02-21T01:56:23.666Z,2.94
2018-02-21T01:57:37.674Z,2.94
2018-02-21T01:58:51.156Z,2.94
2018-02-21T02:00:05.400Z,2.94
2018-02-21T02:01:19.635Z,2.94
2018-02-21T02:02:33.672Z,2.95
2018-02-21T02:03:47.657Z,2.95
2018-02-21T02:05:02.134Z,2.96
2018-02-21T02:06:16.882Z,2.97
2018-02-21T02:07:30.883Z,2.97
2018-02-21T02:08:45.122Z,2.95
2018-02-21T02:09:59.117Z,2.97
2018-02-21T02:11:13.644Z,2.94
2018-02-21T02:12:27.541Z,2.92
2018-02-21T02:13:41.548Z,2.93
2018-02-21T02:14:55.336Z,2.87
2018-02-21T02:16:09.342Z,2.81
2018-02-21T02:17:23.355Z,2.76
2018-02-21T02:18:38.113Z,2.74
2018-02-21T02:19:51.867Z,2.74
2018-02-21T02:21:06.133Z,2.74
2018-02-21T02:22:20.377Z,2.75
2018-02-21T02:23:35.096Z,2.74
2018-02-21T02:24:49.135Z,2.74
2018-02-21T02:26:03.139Z,2.73
2018-02-21T02:27:17.619Z,2.74
2018-02-21T02:28:31.641Z,2.74
2018-02-21T02:29:45.887Z,2.73
2018-02-21T02:30:59.993Z,2.72
2018-02-21T02:32:14.738Z,2.71
2018-02-21T02:33:28.476Z,2.72
2018-02-21T02:34:42.468Z,2.72
2018-02-21T02:35:56.451Z,2.73
2018-02-21T02:37:10.976Z,2.76
2018-02-21T02:38:24.984Z,2.78
2018-02-21T02:39:39.189Z,2.79
2018-02-21T02:40:53.418Z,2.81
2018-02-21T02:42:07.658Z,2.81
2018-02-21T02:43:21.890Z,2.79
2018-02-21T02:44:36.119Z,2.81
2018-02-21T02:45:50.718Z,2.79
2018-02-21T02:47:19.863Z,2.79
2018-02-21T02:48:35.015Z,2.83
2018-02-21T02:49:49.567Z,2.85
2018-02-21T02:51:03.585Z,2.87
2018-02-21T02:52:17.809Z,2.86
2018-02-21T02:53:31.804Z,2.8
2018-02-21T02:54:46.370Z,2.79
2018-02-21T02:56:00.856Z,2.79
2018-02-21T02:57:15.090Z,2.77
2018-02-21T02:58:29.075Z,2.79
2018-02-21T02:59:43.074Z,2.8
2018-02-21T03:00:57.648Z,2.82
2018-02-21T03:02:11.884Z,2.82
2018-02-21T03:03:25.884Z,2.84
2018-02-21T03:04:40.340Z,2.82
2018-02-21T03:05:53.896Z,2.82
2018-02-21T03:07:08.669Z,2.76
2018-02-21T03:08:22.175Z,2.75
2018-02-21T03:09:36.641Z,2.74
2018-02-21T03:10:50.862Z,2.77
2018-02-21T03:12:05.594Z,2.79
2018-02-21T03:13:20.360Z,2.84
2018-02-21T03:14:34.814Z,2.88
2018-02-21T03:15:49.053Z,2.91
2018-02-21T03:17:02.818Z,2.9
2018-02-21T03:18:16.745Z,2.91
2018-02-21T03:19:30.791Z,2.9
2018-02-21T03:20:44.502Z,2.87
2018-02-21T03:21:58.704Z,2.87
2018-02-21T03:23:13.171Z,2.88
2018-02-21T03:24:27.658Z,2.94
2018-02-21T03:25:41.996Z,2.98
2018-02-21T03:26:55.492Z,2.97
2018-02-21T03:28:09.721Z,2.94
2018-02-21T03:29:24.207Z,2.9
2018-02-21T03:30:38.426Z,2.87
2018-02-21T03:31:52.753Z,2.86
2018-02-21T03:33:06.750Z,2.85
2018-02-21T03:34:20.967Z,2.86
2018-02-21T03:35:35.678Z,2.87
2018-02-21T03:36:49.681Z,2.87
2018-02-21T03:38:03.976Z,2.84
2018-02-21T03:39:18.218Z,2.79
2018-02-21T03:40:32.229Z,2.79
2018-02-21T03:41:46.681Z,2.77
2018-02-21T03:43:00.935Z,2.76
2018-02-21T03:44:14.723Z,2.79
2018-02-21T03:45:28.500Z,2.78
2018-02-21T03:46:42.728Z,2.75
2018-02-21T03:47:57.196Z,2.75
2018-02-21T03:49:10.677Z,2.73
2018-02-21T03:50:25.473Z,2.72
2018-02-21T03:51:39.106Z,2.71
2018-02-21T03:52:52.601Z,2.71
2018-02-21T03:54:06.835Z,2.71
2018-02-21T03:55:20.785Z,2.67
2018-02-21T03:56:35.330Z,2.66
2018-02-21T03:57:49.069Z,2.67
2018-02-21T03:59:02.800Z,2.68
2018-02-21T04:00:31.722Z,2.69
2018-02-21T04:01:44.987Z,2.68
2018-02-21T04:02:59.129Z,2.68
2018-02-21T04:04:13.092Z,2.69
2018-02-21T04:05:27.143Z,2.69
2018-02-21T04:06:41.587Z,2.69
2018-02-21T04:07:55.058Z,2.69
2018-02-21T04:09:09.346Z,2.68
2018-02-21T04:10:23.579Z,2.69
2018-02-21T04:11:37.528Z,2.71
2018-02-21T04:12:52.246Z,2.7
2018-02-21T04:14:05.974Z,2.71
2018-02-21T04:15:20.748Z,2.7
2018-02-21T04:16:34.506Z,2.72
2018-02-21T04:17:48.290Z,2.72
2018-02-21T04:19:02.527Z,2.71
2018-02-21T04:20:16.569Z,2.69
2018-02-21T04:21:30.868Z,2.65
2018-02-21T04:22:44.895Z,2.62
2018-02-21T04:23:59.526Z,2.61
2018-02-21T04:25:14.034Z,2.6
2018-02-21T04:26:28.533Z,2.6
2018-02-21T04:27:43.341Z,2.56
2018-02-21T04:28:57.122Z,2.54
2018-02-21T04:30:11.847Z,2.55
2018-02-21T04:31:25.587Z,2.51
2018-02-21T04:32:39.869Z,2.51
2018-02-21T04:33:54.091Z,2.48
2018-02-21T04:35:08.648Z,2.41
2018-02-21T04:36:23.168Z,2.38
2018-02-21T04:37:37.914Z,2.32
2018-02-21T04:38:51.512Z,2.28
2018-02-21T04:40:06.316Z,2.22
2018-02-21T04:41:20.092Z,2.19
2018-02-21T04:42:34.108Z,2.15
2018-02-21T04:43:47.596Z,2.09
2018-02-21T04:45:02.114Z,2.08
2018-02-21T04:46:16.679Z,2.05
2018-02-21T04:47:30.696Z,2.01
2018-02-21T04:48:44.478Z,1.97
2018-02-21T04:49:58.473Z,1.96
2018-02-21T04:51:12.734Z,1.93
2018-02-21T04:52:27.527Z,1.92
2018-02-21T04:53:41.762Z,1.91
2018-02-21T04:54:56.512Z,1.9
2018-02-21T04:56:11.232Z,1.87
2018-02-21T04:57:25.409Z,1.86
2018-02-21T04:58:39.482Z,1.84
2018-02-21T04:59:53.499Z,1.85
2018-02-21T05:01:07.743Z,1.83
2018-02-21T05:02:21.962Z,1.81
2018-02-21T05:03:35.718Z,1.79
2018-02-21T05:04:50.079Z,1.79
2018-02-21T05:06:04.570Z,1.77
2018-02-21T05:07:18.817Z,1.76
2018-02-21T05:08:33.060Z,1.75
2018-02-21T05:09:47.805Z,1.75
2018-02-21T05:11:01.615Z,1.75
2018-02-21T05:12:15.589Z,1.74
2018-02-21T05:13:29.808Z,1.74
2018-02-21T05:14:44.186Z,1.73
2018-02-21T05:15:58.490Z,1.71
2018-02-21T05:17:12.842Z,1.68
2018-02-21T05:18:27.321Z,1.69
2018-02-21T05:19:41.837Z,1.67
2018-02-21T05:20:56.345Z,1.67
2018-02-21T05:22:10.605Z,1.65
2018-02-21T05:23:25.635Z,1.63
2018-02-21T05:24:39.632Z,1.61
2018-02-21T05:25:53.144Z,1.61
2018-02-21T05:27:06.665Z,1.59
2018-02-21T05:28:20.374Z,1.58
2018-02-21T05:29:34.945Z,1.58
2018-02-21T05:30:49.520Z,1.57
2018-02-21T05:32:03.501Z,1.58
2018-02-21T05:33:17.237Z,1.58
2018-02-21T05:34:30.994Z,1.6
2018-02-21T05:35:45.273Z,1.64
2018-02-21T05:36:59.764Z,1.65
2018-02-21T05:38:13.536Z,1.63
2018-02-21T05:39:27.322Z,1.64
2018-02-21T05:40:41.093Z,1.63
2018-02-21T05:41:55.414Z,1.61
2018-02-21T05:43:09.648Z,1.63
2018-02-21T05:44:23.421Z,1.63
2018-02-21T05:45:37.454Z,1.6
2018-02-21T05:46:51.710Z,1.59
2018-02-21T05:48:06.274Z,1.57
2018-02-21T05:49:20.525Z,1.55
2018-02-21T05:50:34.728Z,1.54
2018-02-21T05:51:48.969Z,1.53
2018-02-21T05:53:02.968Z,1.53
2018-02-21T05:54:17.338Z,1.53
2018-02-21T05:55:31.842Z,1.56
2018-02-21T05:56:46.049Z,1.56
2018-02-21T05:58:00.535Z,1.56
2018-02-21T05:59:15.012Z,1.54
2018-02-21T06:00:29.111Z,1.53
2018-02-21T06:01:42.905Z,1.54
2018-02-21T06:03:11.416Z,1.56
2018-02-21T06:04:25.198Z,1.57
2018-02-21T06:05:39.262Z,1.56
2018-02-21T06:06:53.210Z,1.56
2018-02-21T06:08:07.218Z,1.56
2018-02-21T06:09:21.485Z,1.55
2018-02-21T06:10:35.237Z,1.54
2018-02-21T06:11:50.296Z,1.51
2018-02-21T06:13:04.566Z,1.48
2018-02-21T06:14:18.587Z,1.47
2018-02-21T06:15:31.824Z,1.48
2018-02-21T06:17:00.717Z,1.45
2018-02-21T06:18:15.271Z,1.39
2018-02-21T06:19:29.607Z,1.38
2018-02-21T06:20:44.087Z,1.38
2018-02-21T06:21:58.374Z,1.37
2018-02-21T06:23:12.614Z,1.38
2018-02-21T06:24:26.486Z,1.34
2018-02-21T06:25:40.577Z,1.33
2018-02-21T06:26:55.126Z,1.32
2018-02-21T06:28:09.401Z,1.32
2018-02-21T06:29:23.454Z,1.33
2018-02-21T06:30:37.793Z,1.35
2018-02-21T06:31:51.808Z,1.37
2018-02-21T06:33:06.075Z,1.37
2018-02-21T06:34:20.307Z,1.38
2018-02-21T06:35:34.638Z,1.38
2018-02-21T06:36:49.173Z,1.41
2018-02-21T06:38:03.641Z,1.41
2018-02-21T06:39:17.180Z,1.41
2018-02-21T06:40:31.665Z,1.43
2018-02-21T06:41:45.409Z,1.44
2018-02-21T06:42:59.953Z,1.46
2018-02-21T06:44:13.568Z,1.47
2018-02-21T06:45:27.596Z,1.49
2018-02-21T06:46:42.088Z,1.48
2018-02-21T06:47:56.081Z,1.44
2018-02-21T06:49:10.117Z,1.46
2018-02-21T06:50:24.610Z,1.43
2018-02-21T06:51:38.877Z,1.43
2018-02-21T06:52:52.893Z,1.43
2018-02-21T06:54:06.450Z,1.43
2018-02-21T06:55:20.702Z,1.45
2018-02-21T06:56:34.740Z,1.45
2018-02-21T06:57:48.799Z,1.45
2018-02-21T06:59:02.802Z,1.46
2018-02-21T07:00:16.833Z,1.47
2018-02-21T07:01:31.334Z,1.45
2018-02-21T07:02:44.845Z,1.49
2018-02-21T07:03:59.346Z,1.53
2018-02-21T07:05:14.117Z,1.55
2018-02-21T07:06:28.599Z,1.55
2018-02-21T07:07:42.107Z,1.55
2018-02-21T07:08:56.733Z,1.55
2018-02-21T07:10:11.248Z,1.57
2018-02-21T07:11:25.738Z,1.57
2018-02-21T07:12:40.001Z,1.58
2018-02-21T07:13:53.750Z,1.61
2018-02-21T07:15:07.816Z,1.63
2018-02-21T07:16:21.569Z,1.64
2018-02-21T07:17:35.602Z,1.64
2018-02-21T07:18:49.192Z,1.65
2018-02-21T07:20:02.938Z,1.67
2018-02-21T07:21:16.461Z,1.67
2018-02-21T07:22:30.220Z,1.65
2018-02-21T07:23:43.723Z,1.65
2018-02-21T07:24:58.230Z,1.63
2018-02-21T07:26:11.981Z,1.63
2018-02-21T07:27:25.723Z,1.62
2018-02-21T07:28:39.995Z,1.64
2018-02-21T07:29:54.110Z,1.66
2018-02-21T07:31:08.112Z,1.64
2018-02-21T07:32:22.603Z,1.64
2018-02-21T07:33:37.379Z,1.61
2018-02-21T07:34:51.382Z,1.63
2018-02-21T07:36:05.428Z,1.64
2018-02-21T07:37:19.689Z,1.64
2018-02-21T07:38:33.177Z,1.67
2018-02-21T07:39:47.440Z,1.68
2018-02-21T07:41:16.588Z,1.69
2018-02-21T07:42:31.476Z,1.7
2018-02-21T07:43:45.487Z,1.74
2018-02-21T07:44:59.007Z,1.74
2018-02-21T07:46:13.380Z,1.76
2018-02-21T07:47:27.883Z,1.79
2018-02-21T07:48:42.135Z,1.81
2018-02-21T07:49:56.155Z,1.81
2018-02-21T07:51:10.526Z,1.78
2018-02-21T07:52:24.599Z,1.77
2018-02-21T07:53:39.179Z,1.77
2018-02-21T07:54:53.686Z,1.78
2018-02-21T07:56:07.744Z,1.81
2018-02-21T07:57:21.547Z,1.81
2018-02-21T07:58:50.962Z,1.81
2018-02-21T08:00:04.973Z,1.82
2018-02-21T08:01:19.320Z,1.86
2018-02-21T08:02:32.666Z,1.89
2018-02-21T08:03:47.212Z,1.91
2018-02-21T08:05:01.796Z,1.92
2018-02-21T08:06:16.168Z,1.96
2018-02-21T08:07:30.205Z,1.97
2018-02-21T08:08:43.757Z,1.99
2018-02-21T08:09:58.303Z,2.01
2018-02-21T08:11:12.816Z,2.06
2018-02-21T08:12:26.859Z,2.07
2018-02-21T08:13:41.341Z,2.11
2018-02-21T08:14:55.481Z,2.12
2018-02-21T08:16:09.485Z,2.17
2018-02-21T08:17:23.512Z,2.2
2018-02-21T08:18:37.772Z,2.27
2018-02-21T08:19:51.811Z,2.34
2018-02-21T08:21:05.844Z,2.37
2018-02-21T08:22:19.854Z,2.38
2018-02-21T08:23:33.869Z,2.42
2018-02-21T08:24:48.372Z,2.42
2018-02-21T08:26:02.407Z,2.43
2018-02-21T08:27:17.136Z,2.46
2018-02-21T08:28:30.919Z,2.46
2018-02-21T08:29:44.702Z,2.5
2018-02-21T08:30:58.483Z,2.5
2018-02-21T08:32:12.780Z,2.52
2018-02-21T08:33:26.774Z,2.58
2018-02-21T08:34:40.805Z,2.61
2018-02-21T08:35:55.387Z,2.62
2018-02-21T08:37:09.630Z,2.6
2018-02-21T08:38:23.861Z,2.52
2018-02-21T08:39:38.374Z,2.49
2018-02-21T08:40:52.381Z,2.44
2018-02-21T08:42:05.880Z,2.44
2018-02-21T08:43:19.923Z,2.42
2018-02-21T08:44:34.185Z,2.37
2018-02-21T08:45:48.710Z,2.35
2018-02-21T08:47:02.928Z,2.33
2018-02-21T08:48:17.020Z,2.36
2018-02-21T08:49:31.521Z,2.35
2018-02-21T08:50:46.054Z,2.38
2018-02-21T08:52:00.555Z,2.4
2018-02-21T08:53:14.386Z,2.42
2018-02-21T08:54:28.859Z,2.4
2018-02-21T08:55:42.859Z,2.4
2018-02-21T08:56:56.643Z,2.44
2018-02-21T08:58:11.089Z,2.46
2018-02-21T08:59:25.330Z,2.46
2018-02-21T09:00:39.064Z,2.4
2018-02-21T09:01:53.323Z,2.38
2018-02-21T09:03:07.347Z,2.4
2018-02-21T09:04:21.610Z,2.41
2018-02-21T09:05:35.829Z,2.45
2018-02-21T09:06:50.080Z,2.49
2018-02-21T09:08:03.834Z,2.53
2018-02-21T09:09:17.803Z,2.56
2018-02-21T09:10:31.791Z,2.59
2018-02-21T09:11:46.527Z,2.65
2018-02-21T09:13:00.782Z,2.71
2018-02-21T09:14:15.331Z,2.75
2018-02-21T09:15:30.070Z,2.76
2018-02-21T09:16:44.408Z,2.75
2018-02-21T09:17:58.127Z,2.67
2018-02-21T09:19:11.656Z,2.67
2018-02-21T09:20:25.913Z,2.6
2018-02-21T09:21:40.621Z,2.59
2018-02-21T09:22:54.449Z,2.59
2018-02-21T09:24:08.184Z,2.59
2018-02-21T09:25:22.195Z,2.61
2018-02-21T09:26:36.744Z,2.6
2018-02-21T09:27:51.045Z,2.62
2018-02-21T09:29:05.065Z,2.62
2018-02-21T09:30:20.023Z,2.65
2018-02-21T09:31:34.431Z,2.71
2018-02-21T09:32:48.443Z,2.75
2018-02-21T09:34:02.709Z,2.78
2018-02-21T09:35:17.049Z,2.84
2018-02-21T09:36:31.536Z,2.88
2018-02-21T09:37:46.272Z,2.95
2018-02-21T09:39:00.287Z,3
2018-02-21T09:40:14.284Z,3.02
2018-02-21T09:41:28.046Z,3.03
2018-02-21T09:42:42.052Z,3.06
2018-02-21T09:43:56.090Z,3.07
2018-02-21T09:45:10.114Z,3.11
2018-02-21T09:46:24.347Z,3.1
2018-02-21T09:47:38.812Z,3.14
2018-02-21T09:48:53.337Z,3.19
2018-02-21T09:50:07.334Z,3.23
2018-02-21T09:51:20.864Z,3.27
2018-02-21T09:52:35.352Z,3.27
2018-02-21T09:53:50.107Z,3.29
2018-02-21T09:55:04.467Z,3.3
2018-02-21T09:56:18.978Z,3.35
2018-02-21T09:57:33.206Z,3.39
2018-02-21T09:58:47.468Z,3.39
2018-02-21T10:00:01.717Z,3.36
2018-02-21T10:01:16.008Z,3.37
2018-02-21T10:02:30.310Z,3.36
2018-02-21T10:03:44.795Z,3.36
2018-02-21T10:04:58.810Z,3.37
2018-02-21T10:06:13.560Z,3.45
2018-02-21T10:07:27.342Z,3.51
2018-02-21T10:08:41.351Z,3.58
2018-02-21T10:09:55.362Z,3.61
2018-02-21T10:11:09.860Z,3.6
2018-02-21T10:12:24.631Z,3.6
2018-02-21T10:13:39.133Z,3.64
2018-02-21T10:14:53.605Z,3.7
2018-02-21T10:16:07.358Z,3.7
2018-02-21T10:17:21.561Z,3.77
2018-02-21T10:18:35.818Z,3.81
2018-02-21T10:19:50.082Z,3.81
2018-02-21T10:21:03.852Z,3.85
2018-02-21T10:22:17.576Z,3.86
2018-02-21T10:23:31.831Z,3.91
2018-02-21T10:24:45.849Z,3.93
2018-02-21T10:26:00.343Z,3.96
2018-02-21T10:27:14.376Z,4.01
2018-02-21T10:28:28.733Z,3.99
2018-02-21T10:29:43.048Z,3.99
2018-02-21T10:30:56.800Z,3.98
2018-02-21T10:32:11.526Z,3.92
2018-02-21T10:33:25.782Z,3.93
2018-02-21T10:34:39.768Z,3.93
2018-02-21T10:35:54.012Z,3.9
2018-02-21T10:37:07.797Z,3.97
2018-02-21T10:38:21.043Z,4.03
2018-02-21T10:39:35.102Z,4.09
2018-02-21T10:40:49.605Z,4.13
2018-02-21T10:42:03.888Z,4.16
2018-02-21T10:43:18.133Z,4.16
2018-02-21T10:44:31.949Z,4.11
2018-02-21T10:45:45.934Z,4.11
2018-02-21T10:46:59.944Z,4.13
2018-02-21T10:48:13.763Z,4.15
2018-02-21T10:49:27.797Z,4.2
2018-02-21T10:50:41.843Z,4.18
2018-02-21T10:51:56.131Z,4.19
2018-02-21T10:53:10.410Z,4.25
2018-02-21T10:54:24.415Z,4.27
2018-02-21T10:55:38.204Z,4.32
2018-02-21T10:56:51.740Z,4.33
2018-02-21T10:58:05.743Z,4.34
2018-02-21T10:59:20.497Z,4.35
2018-02-21T11:00:34.782Z,4.39
2018-02-21T11:01:49.182Z,4.38
2018-02-21T11:03:02.707Z,4.39
2018-02-21T11:04:16.741Z,4.37
2018-02-21T11:05:30.500Z,4.39
2018-02-21T11:06:45.015Z,4.47
2018-02-21T11:07:59.044Z,4.5
2018-02-21T11:09:13.550Z,4.54
2018-02-21T11:10:27.812Z,4.57
2018-02-21T11:11:42.063Z,4.58
2018-02-21T11:12:55.854Z,4.58
2018-02-21T11:14:09.885Z,4.59
2018-02-21T11:15:23.941Z,4.57
2018-02-21T11:16:37.713Z,4.57
2018-02-21T11:17:52.016Z,4.57
2018-02-21T11:19:06.035Z,4.53
2018-02-21T11:20:20.794Z,4.51
2018-02-21T11:21:34.803Z,4.53
2018-02-21T11:22:49.034Z,4.56
2018-02-21T11:24:03.037Z,4.61
2018-02-21T11:25:17.091Z,4.63
2018-02-21T11:26:30.845Z,4.6
2018-02-21T11:27:45.087Z,4.63
2018-02-21T11:28:59.579Z,4.58
2018-02-21T11:30:13.637Z,4.58
2018-02-21T11:31:28.159Z,4.58
2018-02-21T11:32:42.465Z,4.6
2018-02-21T11:33:56.730Z,4.64
2018-02-21T11:35:11.084Z,4.67
2018-02-21T11:36:25.559Z,4.74
2018-02-21T11:37:39.573Z,4.79
2018-02-21T11:38:53.549Z,4.81
2018-02-21T11:40:07.847Z,4.83
2018-02-21T11:41:22.340Z,4.81
2018-02-21T11:42:36.082Z,4.78
2018-02-21T11:43:50.354Z,4.81
2018-02-21T11:45:03.901Z,4.81
2018-02-21T11:46:17.701Z,4.83
2018-02-21T11:47:30.990Z,4.86
2018-02-21T11:48:44.997Z,4.9
2018-02-21T11:49:59.257Z,4.9
2018-02-21T11:51:14.026Z,4.9
2018-02-21T11:52:27.811Z,4.93
2018-02-21T11:53:41.610Z,4.93
2018-02-21T11:54:56.111Z,4.97
2018-02-21T11:56:10.389Z,4.97
2018-02-21T11:57:24.396Z,4.96
2018-02-21T11:58:37.947Z,4.97
2018-02-21T11:59:52.212Z,4.97
2018-02-21T12:01:06.487Z,4.97
2018-02-21T12:02:20.068Z,4.96
2018-02-21T12:03:33.845Z,4.95
2018-02-21T12:04:48.267Z,4.97
2018-02-21T12:06:03.026Z,4.96
2018-02-21T12:07:17.053Z,4.93
2018-02-21T12:08:31.686Z,4.89
2018-02-21T12:09:45.967Z,4.89
2018-02-21T12:10:59.996Z,4.92
2018-02-21T12:12:14.521Z,4.95
2018-02-21T12:13:28.815Z,4.97
2018-02-21T12:14:43.319Z,4.99
2018-02-21T12:15:57.348Z,5.02
2018-02-21T12:17:10.959Z,5.02
2018-02-21T12:18:25.240Z,5.04
2018-02-21T12:19:39.283Z,5.1
2018-02-21T12:20:52.820Z,5.17
2018-02-21T12:22:06.828Z,5.23
2018-02-21T12:23:20.856Z,5.3
2018-02-21T12:24:35.366Z,5.35
2018-02-21T12:25:49.395Z,5.39
2018-02-21T12:27:03.188Z,5.38
2018-02-21T12:28:16.964Z,5.36
2018-02-21T12:29:30.533Z,5.34
2018-02-21T12:30:44.863Z,5.34
2018-02-21T12:31:58.878Z,5.36
2018-02-21T12:33:12.666Z,5.36
2018-02-21T12:34:26.929Z,5.4
2018-02-21T12:35:41.169Z,5.42
2018-02-21T12:36:54.970Z,5.42
2018-02-21T12:38:09.040Z,5.45
2018-02-21T12:39:23.569Z,5.47
2018-02-21T12:40:37.636Z,5.4
2018-02-21T12:41:52.349Z,5.4
2018-02-21T12:43:06.634Z,5.47
2018-02-21T12:44:21.408Z,5.51
2018-02-21T12:45:35.176Z,5.54
2018-02-21T12:46:49.310Z,5.54
2018-02-21T12:48:03.833Z,5.53
2018-02-21T12:49:17.851Z,5.51
2018-02-21T12:50:32.365Z,5.6
2018-02-21T12:51:46.879Z,5.64
2018-02-21T12:53:01.408Z,5.68
2018-02-21T12:54:15.734Z,5.75
2018-02-21T12:55:30.169Z,5.81
2018-02-21T12:56:44.701Z,5.87
2018-02-21T12:57:58.468Z,5.89
2018-02-21T12:59:12.746Z,5.92
2018-02-21T13:00:27.308Z,5.96
2018-02-21T13:01:41.349Z,5.95
2018-02-21T13:02:56.129Z,5.9
2018-02-21T13:04:10.149Z,5.88
2018-02-21T13:05:24.482Z,5.9
2018-02-21T13:06:38.508Z,5.94
2018-02-21T13:07:52.288Z,5.96
2018-02-21T13:09:06.835Z,5.89
2018-02-21T13:10:20.869Z,5.9
2018-02-21T13:11:34.881Z,5.92
2018-02-21T13:12:49.411Z,5.93
2018-02-21T13:14:02.797Z,5.91
2018-02-21T13:15:16.957Z,5.89
2018-02-21T13:16:31.270Z,5.84
2018-02-21T13:17:45.087Z,5.84
2018-02-21T13:18:59.361Z,5.83
2018-02-21T13:20:13.648Z,5.84
2018-02-21T13:21:28.149Z,5.81
2018-02-21T13:22:42.426Z,5.81
2018-02-21T13:23:56.460Z,5.79
2018-02-21T13:25:10.510Z,5.8
2018-02-21T13:26:25.053Z,5.83
2018-02-21T13:27:39.310Z,5.9
2018-02-21T13:28:53.588Z,5.98
2018-02-21T13:30:07.880Z,6.06
2018-02-21T13:31:21.959Z,6.07
2018-02-21T13:32:36.610Z,6.1
2018-02-21T13:33:50.897Z,6.11
2018-02-21T13:35:04.692Z,6.09
2018-02-21T13:36:19.205Z,6.14
2018-02-21T13:37:33.225Z,6.18
2018-02-21T13:38:47.362Z,6.16
2018-02-21T13:40:01.400Z,6.2
2018-02-21T13:41:15.930Z,6.24
2018-02-21T13:42:30.705Z,6.23
2018-02-21T13:43:44.981Z,6.22
2018-02-21T13:44:58.759Z,6.25
2018-02-21T13:46:13.027Z,6.25
2018-02-21T13:47:26.846Z,6.23
2018-02-21T13:48:40.973Z,6.24
2018-02-21T13:49:55.253Z,6.25
2018-02-21T13:51:09.765Z,6.23
2018-02-21T13:52:24.078Z,6.18
2018-02-21T13:53:38.604Z,6.15
2018-02-21T13:54:53.106Z,6.15
2018-02-21T13:56:07.360Z,6.1
2018-02-21T13:57:21.383Z,6.05
2018-02-21T13:58:35.447Z,5.99
2018-02-21T13:59:49.452Z,5.97
2018-02-21T14:01:02.982Z,5.95
2018-02-21T14:02:17.232Z,5.96
2018-02-21T14:03:31.748Z,5.97
2018-02-21T14:04:45.499Z,6.02
2018-02-21T14:05:59.991Z,6.07
2018-02-21T14:07:14.037Z,6.13
2018-02-21T14:08:28.309Z,6.17
2018-02-21T14:09:42.797Z,6.22
2018-02-21T14:10:56.794Z,6.21
2018-02-21T14:12:10.563Z,6.21
2018-02-21T14:13:24.551Z,6.21
2018-02-21T14:14:38.816Z,6.23
2018-02-21T14:15:52.827Z,6.23
2018-02-21T14:17:06.654Z,6.26
2018-02-21T14:18:21.190Z,6.26
2018-02-21T14:19:35.475Z,6.29
2018-02-21T14:20:49.266Z,6.3
2018-02-21T14:22:03.866Z,6.33
2018-02-21T14:23:33.008Z,6.36
2018-02-21T14:24:47.278Z,6.37
2018-02-21T14:26:01.802Z,6.37
2018-02-21T14:27:16.187Z,6.36
2018-02-21T14:28:30.210Z,6.36
2018-02-21T14:29:44.741Z,6.34
2018-02-21T14:30:59.014Z,6.34
2018-02-21T14:32:13.040Z,6.31
2018-02-21T14:33:27.789Z,6.31
2018-02-21T14:34:42.128Z,6.27
2018-02-21T14:35:56.386Z,6.24
2018-02-21T14:37:10.449Z,6.21
2018-02-21T14:38:24.485Z,6.17
2018-02-21T14:39:38.737Z,6.15
2018-02-21T14:40:52.989Z,6.15
2018-02-21T14:42:22.714Z,6.16
2018-02-21T14:43:37.007Z,6.19
2018-02-21T14:44:50.988Z,6.2
2018-02-21T14:46:05.254Z,6.22
2018-02-21T14:47:19.254Z,6.23
2018-02-21T14:48:33.033Z,6.25
2018-02-21T14:49:46.803Z,6.26
2018-02-21T14:51:00.840Z,6.27
2018-02-21T14:52:15.103Z,6.26
2018-02-21T14:53:29.361Z,6.23
2018-02-21T14:54:43.485Z,6.23
2018-02-21T14:55:58.026Z,6.22
2018-02-21T14:57:12.534Z,6.19
2018-02-21T14:58:27.078Z,6.16
2018-02-21T14:59:41.091Z,6.16
2018-02-21T15:00:55.891Z,6.16
2018-02-21T15:02:09.408Z,6.18
2018-02-21T15:03:23.454Z,6.17
2018-02-21T15:04:37.219Z,6.2
2018-02-21T15:05:51.029Z,6.21
2018-02-21T15:07:05.282Z,6.23
2018-02-21T15:08:19.328Z,6.21
2018-02-21T15:09:33.365Z,6.22
2018-02-21T15:10:47.621Z,6.24
2018-02-21T15:12:01.394Z,6.25
2018-02-21T15:13:15.643Z,6.26
2018-02-21T15:14:30.162Z,6.27
2018-02-21T15:15:44.187Z,6.28
2018-02-21T15:16:58.501Z,6.28
2018-02-21T15:18:12.541Z,6.3
2018-02-21T15:19:26.544Z,6.3
2018-02-21T15:20:41.108Z,6.26
2018-02-21T15:21:55.863Z,6.24
2018-02-21T15:23:09.439Z,6.25
2018-02-21T15:24:23.480Z,6.22
2018-02-21T15:25:37.345Z,6.21
2018-02-21T15:26:51.642Z,6.22
2018-02-21T15:28:06.054Z,6.19
2018-02-21T15:29:20.359Z,6.18
2018-02-21T15:30:34.395Z,6.16
2018-02-21T15:31:49.158Z,6.17
2018-02-21T15:33:03.782Z,6.17
2018-02-21T15:34:18.080Z,6.19
2018-02-21T15:35:32.339Z,6.22
2018-02-21T15:36:46.881Z,6.29
2018-02-21T15:38:01.397Z,6.26
2018-02-21T15:39:15.414Z,6.33
2018-02-21T15:40:29.456Z,6.34
2018-02-21T15:41:43.699Z,6.34
2018-02-21T15:42:57.928Z,6.3
2018-02-21T15:44:12.187Z,6.26
2018-02-21T15:45:26.218Z,6.27
2018-02-21T15:46:40.728Z,6.24
2018-02-21T15:47:54.723Z,6.19
2018-02-21T15:49:08.494Z,6.17
2018-02-21T15:50:22.750Z,6.13
2018-02-21T15:51:37.058Z,6.07
2018-02-21T15:52:51.319Z,6
2018-02-21T15:54:05.827Z,5.98
2018-02-21T15:55:20.165Z,5.97
2018-02-21T15:56:33.984Z,5.96
2018-02-21T15:57:47.997Z,5.97
2018-02-21T15:59:02.011Z,5.94
2018-02-21T16:00:16.380Z,5.92
2018-02-21T16:01:30.304Z,5.89
2018-02-21T16:02:45.060Z,5.87
2018-02-21T16:03:59.084Z,5.84
2018-02-21T16:05:12.622Z,5.82
2018-02-21T16:06:27.114Z,5.81
2018-02-21T16:07:41.220Z,5.81
2018-02-21T16:08:55.509Z,5.83
2018-02-21T16:10:09.089Z,5.82
2018-02-21T16:11:23.384Z,5.81
2018-02-21T16:12:37.612Z,5.8
2018-02-21T16:13:51.891Z,5.83
2018-02-21T16:15:06.634Z,5.84
2018-02-21T16:16:21.422Z,5.84
2018-02-21T16:17:35.706Z,5.85
2018-02-21T16:18:49.727Z,5.82
2018-02-21T16:20:03.992Z,5.78
2018-02-21T16:21:18.282Z,5.73
2018-02-21T16:22:32.623Z,5.66
2018-02-21T16:23:46.413Z,5.61
2018-02-21T16:25:00.431Z,5.59
2018-02-21T16:26:14.745Z,5.55
2018-02-21T16:27:28.846Z,5.52
2018-02-21T16:28:43.169Z,5.48
2018-02-21T16:29:57.002Z,5.44
2018-02-21T16:31:10.285Z,5.4
2018-02-21T16:32:24.862Z,5.39
2018-02-21T16:33:38.389Z,5.38
2018-02-21T16:34:52.603Z,5.34